Time;durP1;ratioP1;P1;durP2;ratioP2;P2;SDS_P1;SDS_P2;PMS_P1;PMS_P2;Temp;Humidity;BMP_temperature;BMP_pressure;BME280_temperature;BME280_humidity;BME280_pressure;Samples;Min_cycle;Max_cycle;Signal;HPM_P1;HPM_P2
2023/08/12 00:02:08;;;;;;;16.90;13.20;;;;;;;21.93;80.63;99487.78;4939618;28;20038;-65
2023/08/12 00:04:33;;;;;;;13.80;11.30;;;;;;;22.02;79.65;99484.81;4939833;28;20039;-65
2023/08/12 00:06:59;;;;;;;15.30;11.70;;;;;;;22.06;79.01;99502.44;4940415;28;20518;-65
2023/08/12 00:12:20;;;;;;;16.20;12.77;;;;;;;22.05;79.35;99516.19;4942024;28;20043;-65
2023/08/12 00:14:47;;;;;;;20.15;12.07;;;;;;;22.11;78.61;99515.47;4939754;28;20054;-64
2023/08/12 00:17:41;;;;;;;17.15;12.18;;;;;;;22.06;78.50;99491.56;4940155;28;20039;-64
2023/08/12 00:20:10;;;;;;;16.50;12.10;;;;;;;22.07;78.63;99493.25;4941299;28;20049;-65
2023/08/12 00:22:38;;;;;;;18.38;11.48;;;;;;;22.18;78.01;99477.53;4940593;28;20042;-66
2023/08/12 00:25:05;;;;;;;14.45;11.50;;;;;;;22.16;77.73;99485.84;4942268;28;20497;-65
2023/08/12 00:27:32;;;;;;;18.75;11.63;;;;;;;22.22;77.27;99476.13;4938863;28;20152;-64
2023/08/12 00:29:57;;;;;;;17.65;11.55;;;;;;;22.21;76.92;99482.59;4941625;28;20046;-65
2023/08/12 00:32:23;;;;;;;14.98;11.65;;;;;;;22.19;77.22;99476.50;4937645;28;20047;-66
2023/08/12 00:35:39;;;;;;;14.23;11.77;;;;;;;22.22;77.29;99484.28;4936747;28;20762;-64
2023/08/12 00:38:04;;;;;;;15.55;11.00;;;;;;;22.16;77.10;99487.72;4936359;28;20043;-64
2023/08/12 00:40:30;;;;;;;14.45;11.70;;;;;;;22.14;76.85;99492.50;4935250;28;20039;-67
2023/08/12 00:43:21;;;;;;;17.55;12.25;;;;;;;22.12;77.38;99497.31;4938102;28;20042;-66
2023/08/12 00:45:52;;;;;;;14.70;11.93;;;;;;;22.10;77.25;99494.78;4939135;28;20043;-66
2023/08/12 00:48:18;;;;;;;18.77;12.50;;;;;;;22.15;76.76;99491.47;4939125;28;20046;-66
2023/08/12 00:50:49;;;;;;;15.13;11.43;;;;;;;22.12;77.19;99500.00;4935195;28;20053;-66
2023/08/12 00:53:16;;;;;;;15.65;12.27;;;;;;;22.04;77.45;99499.06;4938686;28;20051;-64
2023/08/12 00:55:50;;;;;;;16.33;11.07;;;;;;;22.03;77.65;99508.22;4941207;28;20042;-65
2023/08/12 00:58:20;;;;;;;14.90;11.50;;;;;;;22.11;77.19;99496.47;4938835;28;20046;-65
2023/08/12 01:00:48;;;;;;;18.48;11.38;;;;;;;22.04;77.00;99477.34;4937736;28;20046;-65
2023/08/12 01:03:38;;;;;;;14.95;11.95;;;;;;;22.06;77.33;99477.16;4935848;28;20058;-65
2023/08/12 01:06:08;;;;;;;16.52;12.32;;;;;;;22.00;77.53;99486.91;4925715;28;20034;-64
2023/08/12 01:08:35;;;;;;;18.08;12.88;;;;;;;22.02;77.43;99473.13;4936218;28;20053;-64
2023/08/12 01:11:14;;;;;;;15.55;12.10;;;;;;;22.13;76.99;99490.81;4935132;28;20041;-64
2023/08/12 01:13:57;;;;;;;15.70;11.13;;;;;;;22.04;77.05;99493.63;4934574;28;20453;-64
2023/08/12 01:16:29;;;;;;;15.57;12.20;;;;;;;21.97;77.23;99502.69;4936615;28;20046;-66
2023/08/12 01:18:57;;;;;;;18.52;11.40;;;;;;;21.92;77.20;99522.22;4936634;28;20066;-64
2023/08/12 01:21:26;;;;;;;15.25;11.68;;;;;;;21.91;77.55;99506.97;4938296;28;20053;-64
2023/08/12 01:23:54;;;;;;;20.50;12.25;;;;;;;21.90;77.84;99497.13;4935345;28;20049;-64
2023/08/12 01:26:49;;;;;;;16.13;12.18;;;;;;;21.91;77.50;99487.97;4936440;28;20046;-63
2023/08/12 01:29:19;;;;;;;17.48;13.30;;;;;;;21.94;77.41;99484.03;4936481;28;20051;-65
2023/08/12 01:32:29;;;;;;;15.23;11.80;;;;;;;21.95;77.63;99491.16;4937094;28;20049;-64
2023/08/12 01:38:03;;;;;;;;;;;;;;;22.00;77.45;99491.50;4938387;28;20054;-66
2023/08/12 01:40:30;;;;;;;13.50;11.32;;;;;;;21.91;77.25;99515.09;4936928;28;19918;-66
2023/08/12 01:42:56;;;;;;;18.17;13.07;;;;;;;21.88;77.65;99468.53;4920766;28;20073;-66
2023/08/12 01:45:23;;;;;;;16.13;12.68;;;;;;;21.81;78.08;99470.28;4936860;28;20050;-69
2023/08/12 01:48:22;;;;;;;15.68;12.25;;;;;;;21.79;78.31;99464.19;4936788;28;20409;-66
2023/08/12 01:50:48;;;;;;;14.93;12.73;;;;;;;21.79;78.34;99477.75;4937546;28;20430;-68
2023/08/12 01:53:14;;;;;;;15.25;12.38;;;;;;;21.76;78.87;99454.56;4934873;28;20049;-68
2023/08/12 01:55:44;;;;;;;16.73;13.05;;;;;;;21.76;78.76;99457.28;4936522;28;20851;-69
2023/08/12 01:58:17;;;;;;;16.38;12.63;;;;;;;21.75;78.70;99461.00;4936458;28;20054;-70
2023/08/12 02:00:42;;;;;;;19.05;13.48;;;;;;;21.73;78.88;99450.34;4947284;28;20055;-69
2023/08/12 02:03:34;;;;;;;16.05;13.07;;;;;;;21.71;78.91;99451.56;4937456;28;20050;-69
2023/08/12 02:05:59;;;;;;;20.58;13.38;;;;;;;21.70;78.89;99441.72;4933626;28;20047;-69
2023/08/12 02:08:24;;;;;;;17.42;12.05;;;;;;;21.64;79.44;99464.19;4935958;28;20046;-67
2023/08/12 02:10:51;;;;;;;21.60;12.63;;;;;;;21.64;79.80;99448.75;4937280;28;20047;-67
2023/08/12 02:13:17;;;;;;;17.67;12.57;;;;;;;21.63;79.97;99438.06;4935789;28;20043;-69
2023/08/12 02:15:45;;;;;;;17.52;13.52;;;;;;;21.63;80.00;99424.50;4936240;28;20050;-70
2023/08/12 02:19:02;;;;;;;16.50;12.30;;;;;;;21.68;80.05;99446.47;4935102;28;20086;-70
2023/08/12 02:21:28;;;;;;;18.20;12.10;;;;;;;21.60;79.49;99452.00;4924442;28;20043;-68
2023/08/12 02:23:53;;;;;;;18.55;13.38;;;;;;;21.60;79.21;99442.00;4937296;28;20038;-69
2023/08/12 02:26:20;;;;;;;17.70;12.02;;;;;;;21.55;80.09;99454.44;4937148;28;20418;-70
2023/08/12 02:28:50;;;;;;;25.23;13.05;;;;;;;21.53;80.30;99441.06;4934311;28;20043;-70
2023/08/12 02:31:17;;;;;;;22.63;14.27;;;;;;;21.53;80.00;99449.19;4919566;28;20449;-75
2023/08/12 02:33:43;;;;;;;17.42;13.43;;;;;;;21.46;80.33;99448.22;4937369;28;20145;-71
2023/08/12 02:36:35;;;;;;;27.45;14.55;;;;;;;21.53;80.48;99453.78;4919862;28;20055;-72
2023/08/12 02:39:01;;;;;;;23.60;14.63;;;;;;;21.44;80.29;99441.31;4936504;28;20034;-73
2023/08/12 02:41:29;;;;;;;21.15;14.23;;;;;;;21.37;80.78;99468.31;4931947;28;20051;-71
2023/08/12 02:43:57;;;;;;;24.83;16.23;;;;;;;21.31;81.03;99475.34;4919739;28;20042;-72
2023/08/12 02:46:25;;;;;;;22.20;15.43;;;;;;;21.31;81.03;99459.06;4933432;28;20058;-71
2023/08/12 02:48:52;;;;;;;22.98;15.70;;;;;;;21.27;81.20;99457.72;4934620;28;20053;-68
2023/08/12 02:51:19;;;;;;;25.77;14.07;;;;;;;21.37;80.95;99452.91;4937515;28;20043;-70
2023/08/12 02:53:47;;;;;;;21.50;14.05;;;;;;;21.29;80.91;99476.53;4946124;28;20047;-71
2023/08/12 02:56:15;;;;;;;22.58;14.48;;;;;;;21.31;81.04;99469.06;4918439;28;20085;-71
2023/08/12 02:58:43;;;;;;;17.73;13.55;;;;;;;21.31;80.96;99456.34;4927943;28;20043;-72
2023/08/12 03:01:08;;;;;;;29.23;14.68;;;;;;;21.25;81.20;99470.63;4940671;28;20058;-73
2023/08/12 03:03:34;;;;;;;16.25;13.60;;;;;;;21.32;81.00;99471.59;4938487;28;20058;-70
2023/08/12 03:05:59;;;;;;;21.83;12.60;;;;;;;21.26;81.05;99477.72;4935997;28;20038;-71
2023/08/12 03:08:26;;;;;;;18.88;12.25;;;;;;;21.26;81.32;99477.72;4919379;28;20050;-73
2023/08/12 03:11:02;;;;;;;18.15;13.07;;;;;;;21.32;81.36;99482.44;4935528;28;20058;-73
2023/08/12 03:13:29;;;;;;;16.70;13.10;;;;;;;21.31;81.35;99453.63;4935681;28;20043;-71
2023/08/12 03:15:56;;;;;;;14.95;12.02;;;;;;;21.33;81.54;99446.13;4919530;28;20050;-72
2023/08/12 03:18:24;;;;;;;16.33;11.95;;;;;;;21.35;81.59;99444.09;4935331;28;20054;-73
2023/08/12 03:20:50;;;;;;;18.35;12.85;;;;;;;21.36;81.69;99417.81;4935607;28;20054;-73
2023/08/12 03:23:19;;;;;;;17.98;12.77;;;;;;;21.40;81.29;99418.31;4935640;28;20039;-73
2023/08/12 03:25:47;;;;;;;15.55;12.77;;;;;;;21.40;81.46;99423.72;4936623;28;20449;-71
2023/08/12 03:28:12;;;;;;;16.73;13.35;;;;;;;21.38;81.49;99423.91;4936428;28;20069;-73
2023/08/12 03:30:39;;;;;;;20.27;13.38;;;;;;;21.37;81.68;99414.09;4936274;28;20391;-72
2023/08/12 03:33:04;;;;;;;16.92;13.60;;;;;;;21.35;81.44;99422.41;4936698;28;20049;-73
2023/08/12 03:35:34;;;;;;;16.00;13.23;;;;;;;21.32;81.65;99411.94;4919151;28;20061;-71
2023/08/12 03:38:03;;;;;;;16.55;12.60;;;;;;;21.33;82.06;99402.75;4935252;28;20051;-72
2023/08/12 03:40:28;;;;;;;18.88;13.18;;;;;;;21.34;82.15;99415.28;4935320;28;20050;-73
2023/08/12 03:42:57;;;;;;;16.67;12.43;;;;;;;21.40;82.07;99407.47;4935152;28;20053;-73
2023/08/12 03:45:25;;;;;;;17.75;12.50;;;;;;;21.44;81.82;99420.47;4918788;28;20066;-71
2023/08/12 03:50:46;;;;;;;22.13;13.48;;;;;;;21.56;80.81;99418.97;4938111;28;20521;-74
2023/08/12 03:53:17;;;;;;;17.65;13.75;;;;;;;21.61;80.56;99404.84;4947872;28;20470;-70
2023/08/12 03:55:44;;;;;;;19.92;13.25;;;;;;;21.59;80.31;99412.34;4935142;28;20494;-70
2023/08/12 03:58:12;;;;;;;21.65;14.40;;;;;;;21.57;80.18;99415.22;4919609;28;20061;-71
2023/08/12 04:00:44;;;;;;;20.55;13.80;;;;;;;21.53;80.14;99419.38;4936210;28;20045;-71
2023/08/12 04:03:17;;;;;;;20.58;14.02;;;;;;;21.46;80.11;99414.84;4935488;28;20054;-71
2023/08/12 04:05:52;;;;;;;16.10;13.48;;;;;;;21.43;80.57;99450.50;4935228;28;20035;-71
2023/08/12 04:08:23;;;;;;;24.58;13.82;;;;;;;21.38;80.72;99442.88;4930280;28;20050;-70
2023/08/12 04:10:48;;;;;;;24.15;14.00;;;;;;;21.36;80.71;99437.66;4940057;28;20069;-75
2023/08/12 04:13:14;;;;;;;20.48;14.15;;;;;;;21.36;80.77;99437.66;4939006;28;20054;-75
2023/08/12 04:15:49;;;;;;;21.02;14.85;;;;;;;21.35;80.88;99443.25;4939043;28;20051;-76
2023/08/12 04:18:14;;;;;;;19.05;13.60;;;;;;;21.25;80.74;99459.78;4938924;28;20055;-75
2023/08/12 04:20:41;;;;;;;20.30;14.35;;;;;;;21.21;80.89;99442.22;4938853;28;20042;-75
2023/08/12 04:23:06;;;;;;;19.42;14.38;;;;;;;21.17;81.16;99451.69;4939900;28;20050;-75
2023/08/12 04:25:32;;;;;;;22.33;13.55;;;;;;;21.27;80.09;99452.31;4938697;28;20413;-76
2023/08/12 04:27:59;;;;;;;18.65;13.52;;;;;;;21.21;79.76;99416.97;4937845;28;20051;-75
2023/08/12 04:30:26;;;;;;;19.60;13.32;;;;;;;21.15;79.96;99442.88;4938427;28;20517;-76
2023/08/12 04:32:55;;;;;;;14.77;12.10;;;;;;;21.28;79.19;99426.03;4938287;28;20047;-76
2023/08/12 04:35:21;;;;;;;15.93;12.30;;;;;;;21.25;78.86;99416.41;4922437;28;20046;-76
2023/08/12 04:37:50;;;;;;;15.65;12.52;;;;;;;21.32;78.41;99417.38;4938544;28;20062;-75
2023/08/12 04:40:22;;;;;;;18.33;12.98;;;;;;;21.41;77.55;99420.84;4907499;28;20518;-76
2023/08/12 04:42:48;;;;;;;23.60;12.50;;;;;;;21.40;77.25;99432.72;4937920;28;20059;-76
2023/08/12 04:45:13;;;;;;;19.00;12.75;;;;;;;21.42;77.20;99444.22;4938087;28;20051;-75
2023/08/12 04:47:41;;;;;;;18.05;12.25;;;;;;;21.48;76.41;99450.75;4938107;28;20046;-74
2023/08/12 04:50:09;;;;;;;16.90;12.30;;;;;;;21.55;75.84;99468.84;4921517;28;20059;-74
2023/08/12 04:52:37;;;;;;;15.73;11.65;;;;;;;21.50;75.53;99468.53;4939471;28;20038;-75
2023/08/12 04:55:07;;;;;;;17.42;12.43;;;;;;;21.50;75.31;99473.13;4939531;28;20066;-75
2023/08/12 04:57:58;;;;;;;17.77;12.63;;;;;;;21.61;74.31;99467.25;4925302;28;20054;-75
2023/08/12 05:00:25;;;;;;;16.75;11.50;;;;;;;21.68;73.83;99465.47;4922089;28;20051;-74
2023/08/12 05:02:51;;;;;;;18.45;12.52;;;;;;;21.72;72.98;99459.50;4937929;28;20054;-76
2023/08/12 05:05:16;;;;;;;17.98;12.32;;;;;;;21.76;72.13;99470.84;4937843;28;20051;-74
2023/08/12 05:07:48;;;;;;;16.15;12.55;;;;;;;21.84;71.72;99469.91;4921562;28;20486;-77
2023/08/12 05:10:18;;;;;;;16.60;12.15;;;;;;;21.79;71.51;99461.47;4937628;28;20047;-75
2023/08/12 05:12:44;;;;;;;17.08;11.05;;;;;;;21.85;70.92;99452.59;4938803;28;20042;-75
2023/08/12 05:15:10;;;;;;;14.73;10.25;;;;;;;21.75;71.09;99450.16;4905119;28;20058;-71
2023/08/12 05:17:37;;;;;;;13.80;10.25;;;;;;;21.80;70.37;99447.72;4920927;28;20790;-72
2023/08/12 05:20:04;;;;;;;17.80;11.38;;;;;;;21.71;70.49;99432.56;4922089;28;20912;-71
2023/08/12 05:22:29;;;;;;;17.20;11.07;;;;;;;21.64;71.28;99409.91;4921440;28;20050;-73
2023/08/12 05:24:56;;;;;;;17.73;10.15;;;;;;;21.55;71.69;99492.41;4938471;28;20414;-73
2023/08/12 05:27:22;;;;;;;13.63;10.35;;;;;;;21.58;71.33;99389.78;4920764;28;20453;-74
2023/08/12 05:29:48;;;;;;;17.50;10.65;;;;;;;21.55;71.71;99389.34;4919849;28;20091;-73
2023/08/12 05:32:13;;;;;;;14.10;10.52;;;;;;;21.50;72.16;99414.28;4938233;28;20050;-73
2023/08/12 05:34:39;;;;;;;12.75;10.98;;;;;;;21.47;72.52;99402.97;4937155;28;20504;-71
2023/08/12 05:37:06;;;;;;;14.80;11.05;;;;;;;21.40;72.76;99400.16;4936988;28;20051;-73
2023/08/12 05:39:31;;;;;;;14.75;10.57;;;;;;;21.53;72.21;99394.09;4938234;28;20490;-71
2023/08/12 05:41:58;;;;;;;13.88;11.15;;;;;;;21.43;72.49;99379.97;4937161;28;20042;-71
2023/08/12 05:44:51;;;;;;;17.30;12.02;;;;;;;21.41;72.30;99349.47;4937115;28;20051;-70
2023/08/12 05:47:16;;;;;;;18.80;11.35;;;;;;;21.43;72.31;99350.13;4920656;28;20047;-71
2023/08/12 05:49:42;;;;;;;16.30;10.80;;;;;;;21.41;72.23;99344.91;4937298;28;20035;-70
2023/08/12 05:52:11;;;;;;;20.95;11.75;;;;;;;21.41;72.12;99344.06;4921117;28;20054;-71
2023/08/12 05:54:37;;;;;;;17.00;11.55;;;;;;;21.44;72.06;99349.13;4937919;28;20124;-71
2023/08/12 05:57:09;;;;;;;22.15;11.68;;;;;;;21.49;71.28;99349.38;4937985;28;20043;-72
2023/08/12 05:59:38;;;;;;;15.57;11.13;;;;;;;21.38;71.66;99329.84;4938007;28;20062;-71
2023/08/12 06:02:04;;;;;;;15.35;10.15;;;;;;;21.30;72.19;99339.94;4937927;28;20264;-71
2023/08/12 06:04:29;;;;;;;17.25;11.65;;;;;;;21.28;72.98;99331.13;4938019;28;20041;-72
2023/08/12 06:06:56;;;;;;;20.35;11.93;;;;;;;21.32;72.97;99332.47;4890049;28;20051;-70
2023/08/12 06:09:23;;;;;;;15.98;12.65;;;;;;;21.36;72.59;99331.88;4937997;28;20054;-75
2023/08/12 06:12:13;;;;;;;14.80;11.82;;;;;;;21.36;72.16;99326.47;4938067;28;20057;-73
2023/08/12 06:14:39;;;;;;;23.58;12.10;;;;;;;21.38;72.45;99319.00;4920475;28;20743;-73
2023/08/12 06:17:08;;;;;;;15.18;11.32;;;;;;;21.44;72.27;99327.41;4936305;28;20047;-72
2023/08/12 06:19:33;;;;;;;16.55;11.77;;;;;;;21.52;71.98;99330.03;4935884;28;20058;-72
2023/08/12 06:22:05;;;;;;;20.13;11.02;;;;;;;21.57;72.00;99327.56;4936756;28;20035;-74
2023/08/12 06:24:32;;;;;;;16.90;10.77;;;;;;;21.70;71.06;99327.75;4937532;28;20043;-73
2023/08/12 06:26:59;;;;;;;19.25;11.45;;;;;;;21.77;70.19;99325.16;4935915;28;20041;-72
2023/08/12 06:29:28;;;;;;;17.70;11.15;;;;;;;21.79;69.95;99348.34;4935385;28;20062;-72
2023/08/12 06:31:54;;;;;;;15.50;10.15;;;;;;;21.83;70.38;99338.78;4937246;28;20050;-73
2023/08/12 06:34:21;;;;;;;16.42;11.68;;;;;;;21.89;70.04;99334.50;4937357;28;20050;-74
2023/08/12 06:36:50;;;;;;;22.40;11.02;;;;;;;21.99;69.42;99341.34;4937447;28;20050;-73
2023/08/12 06:39:17;;;;;;;15.85;10.75;;;;;;;22.16;67.41;99343.81;4936032;28;20065;-71
2023/08/12 06:41:42;;;;;;;16.27;10.15;;;;;;;22.21;66.63;99347.66;4936004;28;20042;-72
2023/08/12 06:44:12;;;;;;;16.58;10.60;;;;;;;22.25;65.96;99326.38;4936002;28;20050;-72
2023/08/12 06:46:41;;;;;;;13.10;9.88;;;;;;;22.27;66.08;99327.88;4935579;28;20058;-71
2023/08/12 06:49:09;;;;;;;13.70;10.48;;;;;;;22.30;66.03;99351.94;4937256;28;20042;-71
2023/08/12 06:51:37;;;;;;;13.18;10.65;;;;;;;22.36;65.46;99325.88;4936985;28;20058;-71
2023/08/12 06:54:28;;;;;;;18.50;11.10;;;;;;;22.44;64.55;99333.91;4937184;28;20051;-72
2023/08/12 06:56:53;;;;;;;19.50;11.20;;;;;;;22.56;63.74;99335.09;4937032;28;20054;-73
2023/08/12 06:59:20;;;;;;;14.93;10.93;;;;;;;22.55;64.12;99351.56;4936932;28;20070;-73
2023/08/12 07:01:50;;;;;;;12.00;9.48;;;;;;;22.65;63.96;99352.09;4936984;28;20054;-73
2023/08/12 07:04:20;;;;;;;14.93;11.18;;;;;;;22.58;63.62;99338.44;4935584;28;20046;-75
2023/08/12 07:06:48;;;;;;;20.75;11.88;;;;;;;22.62;63.65;99349.75;4934978;28;20066;-75
2023/08/12 07:09:16;;;;;;;14.85;9.63;;;;;;;22.68;63.36;99349.84;4937154;28;20042;-74
2023/08/12 07:12:32;;;;;;;18.30;9.57;;;;;;;22.70;62.23;99322.44;4937213;28;20065;-72
2023/08/12 07:15:00;;;;;;;23.70;11.30;;;;;;;22.65;62.69;99322.19;4935612;28;20038;-72
2023/08/12 07:17:29;;;;;;;26.85;10.63;;;;;;;22.72;62.04;99329.38;4936442;28;20053;-72
2023/08/12 07:19:54;;;;;;;19.65;11.57;;;;;;;22.82;61.63;99334.50;4936471;28;20042;-76
2023/08/12 07:22:21;;;;;;;13.98;9.98;;;;;;;22.92;61.43;99318.69;4941491;28;20042;-72
2023/08/12 07:24:55;;;;;;;14.20;10.95;;;;;;;23.08;61.13;99321.13;4952593;28;20050;-71
2023/08/12 07:27:22;;;;;;;13.30;9.75;;;;;;;23.14;60.67;99317.63;4952055;28;20038;-72
2023/08/12 07:29:49;;;;;;;22.85;9.80;;;;;;;23.28;60.43;99317.72;4956047;28;20063;-71
2023/08/12 07:32:16;;;;;;;14.05;9.95;;;;;;;23.33;59.13;99305.22;4951675;28;20074;-72
2023/08/12 07:34:47;;;;;;;12.40;9.80;;;;;;;23.40;58.92;99300.63;4940270;28;20047;-71
2023/08/12 07:37:12;;;;;;;20.13;10.98;;;;;;;23.38;58.92;99301.88;4939523;28;20045;-72
2023/08/12 07:39:38;;;;;;;20.25;11.10;;;;;;;23.35;58.99;99316.75;4921766;28;20046;-72
2023/08/12 07:42:06;;;;;;;16.25;10.63;;;;;;;23.33;59.34;99321.53;4938836;28;20066;-72
2023/08/12 07:44:31;;;;;;;17.80;10.32;;;;;;;23.35;58.80;99321.34;4938919;28;20050;-71
2023/08/12 07:46:57;;;;;;;17.90;10.95;;;;;;;23.41;58.59;99328.69;4940128;28;20034;-70
2023/08/12 07:49:48;;;;;;;18.48;11.40;;;;;;;23.49;59.06;99348.41;4940328;28;20073;-71
2023/08/12 07:52:13;;;;;;;18.17;11.07;;;;;;;23.49;58.76;99347.56;4935513;28;20046;-72
2023/08/12 07:54:39;;;;;;;21.95;10.90;;;;;;;23.47;58.20;99372.28;4919774;29;20051;-72
2023/08/12 07:57:08;;;;;;;14.93;10.75;;;;;;;23.39;58.62;99375.13;4921244;29;20047;-71
2023/08/12 07:59:37;;;;;;;28.05;12.35;;;;;;;23.42;58.67;99390.22;4926425;28;20050;-72
2023/08/12 08:02:06;;;;;;;15.20;9.95;;;;;;;23.16;59.52;99342.75;4940300;28;20041;-71
2023/08/12 08:04:34;;;;;;;17.35;10.70;;;;;;;22.99;60.68;99367.72;4938641;28;20061;-71
2023/08/12 08:06:59;;;;;;;20.85;12.77;;;;;;;22.67;61.81;99369.06;4922603;28;20066;-71
2023/08/12 08:09:25;;;;;;;17.58;11.13;;;;;;;22.45;63.11;99370.91;4938021;28;20055;-71
2023/08/12 08:11:51;;;;;;;17.85;12.50;;;;;;;22.31;64.44;99348.19;4939983;28;20049;-72
2023/08/12 08:14:18;;;;;;;19.50;10.55;;;;;;;22.21;65.77;99330.53;4938053;28;20062;-72
2023/08/12 08:16:45;;;;;;;36.83;13.70;;;;;;;22.20;65.80;99335.13;4939498;28;20406;-70
2023/08/12 08:19:13;;;;;;;16.10;10.90;;;;;;;22.15;66.00;99331.28;4939903;28;20066;-75
2023/08/12 08:21:41;;;;;;;19.95;11.25;;;;;;;22.13;66.13;99322.47;4939631;28;20049;-73
2023/08/12 08:24:12;;;;;;;13.93;10.90;;;;;;;22.17;66.47;99315.63;4923287;28;20104;-73
2023/08/12 08:26:45;;;;;;;15.80;10.77;;;;;;;22.20;66.91;99301.69;4939718;28;20043;-73
2023/08/12 08:29:13;;;;;;;16.85;11.30;;;;;;;22.25;66.71;99304.66;4921825;28;20054;-73
2023/08/12 08:31:39;;;;;;;14.65;10.70;;;;;;;22.32;66.71;99327.31;4939352;28;20047;-73
2023/08/12 08:34:10;;;;;;;21.42;11.55;;;;;;;22.41;66.95;99327.00;4939348;28;20054;-73
2023/08/12 08:36:36;;;;;;;18.60;11.88;;;;;;;22.41;66.60;99323.44;4938132;28;20045;-72
2023/08/12 08:39:31;;;;;;;19.88;12.10;;;;;;;22.56;66.63;99366.84;4937782;28;20050;-73
2023/08/12 08:41:59;;;;;;;17.75;12.88;;;;;;;22.72;65.54;99420.94;4939269;28;20050;-74
2023/08/12 08:44:31;;;;;;;15.25;11.55;;;;;;;22.91;65.03;99387.69;4937697;28;20057;-76
2023/08/12 08:47:01;;;;;;;18.52;12.25;;;;;;;23.12;64.53;99368.66;4921624;28;20051;-73
2023/08/12 08:52:21;;;;;;;16.88;11.35;;;;;;;23.45;62.56;99379.78;4936669;28;20054;-72
2023/08/12 08:54:47;;;;;;;14.90;12.45;;;;;;;23.33;63.21;99375.94;4938857;28;20065;-73
2023/08/12 08:57:13;;;;;;;16.65;13.15;;;;;;;23.39;62.74;99357.97;4938924;28;20041;-72
2023/08/12 08:59:42;;;;;;;16.73;12.07;;;;;;;23.36;63.23;99350.22;4937513;28;20433;-73
2023/08/12 09:02:21;;;;;;;19.00;13.02;;;;;;;23.44;63.68;99360.94;4938965;28;20422;-73
2023/08/12 09:04:57;;;;;;;14.73;11.23;;;;;;;23.43;62.53;99337.50;4938881;28;20042;-72
2023/08/12 09:07:26;;;;;;;17.38;11.88;;;;;;;23.38;62.68;99291.81;4938876;28;20035;-72
2023/08/12 09:09:57;;;;;;;19.45;12.55;;;;;;;23.41;62.50;99373.06;4938680;28;20051;-73
2023/08/12 09:12:26;;;;;;;17.85;12.98;;;;;;;23.35;63.16;99340.38;4938987;28;20042;-72
2023/08/12 09:14:52;;;;;;;14.75;11.65;;;;;;;23.37;62.90;99333.69;4938365;28;20047;-72
2023/08/12 09:17:17;;;;;;;16.98;11.68;;;;;;;23.45;62.26;99347.16;4938909;28;20043;-71
2023/08/12 09:20:38;;;;;;;16.73;11.50;;;;;;;23.42;62.88;99342.09;4940487;28;20066;-74
2023/08/12 09:23:08;;;;;;;20.40;12.57;;;;;;;23.40;62.34;99333.28;4939171;28;20039;-74
2023/08/12 09:25:35;;;;;;;20.85;12.50;;;;;;;23.29;62.13;99374.63;4938942;28;20517;-74
2023/08/12 09:28:26;;;;;;;16.35;9.63;;;;;;;23.29;61.72;99363.75;4935961;28;20520;-74
2023/08/12 09:30:56;;;;;;;14.50;11.65;;;;;;;23.11;62.74;99387.88;4905900;28;20058;-74
2023/08/12 09:33:27;;;;;;;15.73;11.05;;;;;;;23.27;61.54;99397.63;4938853;28;20046;-73
2023/08/12 09:35:53;;;;;;;14.73;11.43;;;;;;;23.12;61.23;99401.28;4922058;28;20061;-74
2023/08/12 09:38:18;;;;;;;19.20;12.35;;;;;;;22.95;62.10;99405.31;4938684;28;20046;-73
2023/08/12 09:40:46;;;;;;;18.23;11.95;;;;;;;22.87;62.81;99378.25;4936919;28;20046;-72
2023/08/12 09:46:02;;;;;;;18.77;11.38;;;;;;;22.56;63.90;99372.28;4934631;28;20938;-73
2023/08/12 09:48:28;;;;;;;16.33;11.63;;;;;;;22.49;64.66;99377.63;4926295;28;20034;-71
2023/08/12 09:50:53;;;;;;;15.65;11.45;;;;;;;22.41;64.63;99375.03;4936337;28;20069;-74
2023/08/12 09:53:49;;;;;;;16.33;12.00;;;;;;;22.35;65.17;99359.50;4934409;28;20050;-71
2023/08/12 09:56:19;;;;;;;20.05;12.07;;;;;;;22.31;65.40;99358.22;4918082;28;20042;-71
2023/08/12 09:58:52;;;;;;;20.92;13.07;;;;;;;22.19;66.92;99355.16;4935154;28;20043;-71
2023/08/12 10:01:22;;;;;;;19.70;13.73;;;;;;;21.96;67.95;99349.81;4939343;28;20055;-72
2023/08/12 10:03:51;;;;;;;19.42;14.60;;;;;;;21.89;69.00;99343.47;4934085;28;20059;-73
2023/08/12 10:06:21;;;;;;;17.90;13.40;;;;;;;21.84;69.85;99355.91;4936880;28;20046;-72
2023/08/12 10:08:49;;;;;;;18.30;14.02;;;;;;;21.86;69.93;99343.84;4937692;28;20871;-72
2023/08/12 10:11:17;;;;;;;19.65;14.00;;;;;;;21.92;70.64;99321.38;4933434;28;20050;-73
2023/08/12 10:13:43;;;;;;;14.18;12.07;;;;;;;21.98;70.16;99328.81;4936792;28;20508;-73
2023/08/12 10:16:11;;;;;;;24.50;14.60;;;;;;;22.09;70.54;99333.75;4934922;28;20049;-73
2023/08/12 10:18:41;;;;;;;18.58;13.07;;;;;;;22.14;70.56;99351.31;4934859;28;20063;-74
2023/08/12 10:21:36;;;;;;;15.95;12.43;;;;;;;22.35;70.46;99338.59;4935937;28;20046;-74
2023/08/12 10:24:06;;;;;;;25.58;13.43;;;;;;;22.34;69.69;99346.97;4936139;28;20058;-74
2023/08/12 10:26:35;;;;;;;19.63;13.13;;;;;;;22.34;69.44;99353.25;4939395;28;20043;-75
2023/08/12 10:29:02;;;;;;;24.90;13.75;;;;;;;22.34;69.10;99355.97;4933082;28;20051;-73
2023/08/12 10:31:31;;;;;;;19.15;12.50;;;;;;;22.28;69.03;99364.84;4937055;28;20512;-73
2023/08/12 10:34:01;;;;;;;22.58;13.65;;;;;;;22.22;69.18;99381.09;4934692;28;20047;-71
2023/08/12 10:36:31;;;;;;;17.25;12.20;;;;;;;22.34;69.21;99360.56;4936010;28;20397;-72
2023/08/12 10:39:00;;;;;;;14.65;12.05;;;;;;;22.37;68.82;99374.56;4936929;28;20142;-72
2023/08/12 10:41:25;;;;;;;23.52;12.13;;;;;;;22.23;68.71;99340.16;4939398;28;20406;-71
2023/08/12 10:44:14;;;;;;;16.08;11.95;;;;;;;22.11;69.48;99338.13;4934630;28;20050;-73
2023/08/12 10:46:53;;;;;;;16.77;12.85;;;;;;;21.90;70.56;99326.13;4937094;28;20050;-73
2023/08/12 10:49:22;;;;;;;16.23;11.77;;;;;;;21.82;70.58;99357.97;4931998;28;20065;-71
2023/08/12 10:51:51;;;;;;;20.20;14.10;;;;;;;21.66;71.49;99354.44;4935081;28;20059;-72
2023/08/12 10:54:26;;;;;;;17.80;11.65;;;;;;;21.54;71.88;99338.81;4933818;28;20046;-72
2023/08/12 10:57:03;;;;;;;18.55;12.20;;;;;;;21.50;72.56;99326.66;4931133;28;20054;-72
2023/08/12 10:59:48;;;;;;;16.90;13.13;;;;;;;21.46;73.70;99344.31;4934131;28;20584;-71
2023/08/12 11:02:40;;;;;;;17.85;12.63;;;;;;;21.37;73.62;99346.28;4932949;28;20046;-73
2023/08/12 11:05:10;;;;;;;22.30;11.63;;;;;;;21.35;72.92;99362.75;4933324;28;20061;-75
2023/08/12 11:07:46;;;;;;;17.75;12.68;;;;;;;21.31;73.21;99383.13;4935750;28;20034;-74
2023/08/12 11:11:02;;;;;;;12.35;9.55;;;;;;;21.31;73.04;99453.63;4936134;28;20053;-75
2023/08/12 11:13:28;;;;;;;18.75;14.25;;;;;;;21.16;73.36;99428.31;4932205;28;20051;-71
2023/08/12 11:16:06;;;;;;;18.35;13.00;;;;;;;21.21;74.53;99431.38;4936104;28;20046;-73
2023/08/12 11:18:36;;;;;;;19.48;14.18;;;;;;;21.04;74.69;99424.34;4932305;28;20062;-72
2023/08/12 11:21:03;;;;;;;17.67;12.48;;;;;;;21.00;75.32;99423.00;4919210;28;20054;-74
2023/08/12 11:26:24;;;;;;;18.10;13.30;;;;;;;20.71;77.23;99422.91;4927458;28;20508;-71
2023/08/12 11:28:49;;;;;;;24.17;16.35;;;;;;;20.59;78.15;99420.59;4932491;28;20054;-71
2023/08/12 11:31:17;;;;;;;24.50;15.88;;;;;;;20.51;79.12;99407.13;4934088;28;20142;-73
2023/08/12 11:33:43;;;;;;;22.83;15.48;;;;;;;20.39;79.76;99419.38;4940249;28;20513;-72
2023/08/12 11:36:11;;;;;;;23.05;14.00;;;;;;;20.40;80.14;99383.16;4934267;28;20445;-69
2023/08/12 11:38:37;;;;;;;14.82;11.95;;;;;;;20.20;80.60;99376.47;4913017;28;20050;-70
2023/08/12 11:43:54;;;;;;;18.52;13.75;;;;;;;19.69;83.49;99384.13;4934248;28;20066;-71
2023/08/12 11:46:22;;;;;;;18.73;11.63;;;;;;;19.54;84.68;99385.84;4934649;28;20530;-72
2023/08/12 11:48:47;;;;;;;16.48;13.73;;;;;;;19.47;85.63;99377.56;4935284;28;20457;-70
2023/08/12 11:51:14;;;;;;;19.98;13.85;;;;;;;19.33;86.58;99364.75;4933672;28;20050;-69
2023/08/12 11:53:43;;;;;;;18.73;14.80;;;;;;;19.09;88.41;99359.38;4931905;28;20047;-68